Time;durP1;ratioP1;P1;durP2;ratioP2;P2;SDS_P1;SDS_P2;PMS_P1;PMS_P2;Temp;Humidity;BMP_temperature;BMP_pressure;BME280_temperature;BME280_humidity;BME280_pressure;Samples;Min_cycle;Max_cycle;Signal;HPM_P1;HPM_P2
2024/01/16 00:00:25;;;;;;;0.80;0.80;;;;;;;-2.38;83.06;96240.88;29373;262;63004;-58
2024/01/16 00:01:00;;;;;;;0.70;0.70;;;;;;;-2.43;83.13;96243.44;29373;226;63009;-58
2024/01/16 00:01:31;;;;;;;0.70;0.70;;;;;;;-2.45;83.21;96248.16;29373;214;63004;-61
2024/01/16 00:02:03;;;;;;;0.70;0.70;;;;;;;-2.48;83.53;96243.31;29371;225;64013;-60
2024/01/16 00:02:34;;;;;;;0.70;0.70;;;;;;;-2.49;83.91;96247.00;29373;229;63005;-60
2024/01/16 00:03:06;;;;;;;0.70;0.70;;;;;;;-2.51;84.03;96241.91;29373;278;63009;-61
2024/01/16 00:03:38;;;;;;;1.35;1.33;;;;;;;-2.52;84.00;96247.44;29373;256;63005;-61
2024/01/16 00:04:13;;;;;;;0.70;0.70;;;;;;;-2.53;84.31;96243.16;29373;220;63009;-61
2024/01/16 00:04:51;;;;;;;0.80;0.80;;;;;;;-2.52;84.46;96250.09;29371;247;64009;-58
2024/01/16 00:05:22;;;;;;;0.70;0.70;;;;;;;-2.52;84.65;96247.44;29373;279;63009;-59
2024/01/16 00:05:54;;;;;;;0.70;0.70;;;;;;;-2.53;84.37;96248.47;29373;310;63005;-58
2024/01/16 00:06:25;;;;;;;0.80;0.80;;;;;;;-2.53;84.60;96248.47;29373;266;63009;-60
2024/01/16 00:06:56;;;;;;;0.70;0.70;;;;;;;-2.53;84.50;96249.28;29373;232;63004;-60
2024/01/16 00:07:28;;;;;;;0.70;0.70;;;;;;;-2.46;84.45;96246.56;29373;220;63009;-60
2024/01/16 00:08:00;;;;;;;0.70;0.70;;;;;;;-2.35;83.56;96248.41;29371;223;64009;-58
2024/01/16 00:08:32;;;;;;;0.70;0.70;;;;;;;-2.32;83.13;96244.50;29373;224;63009;-60
2024/01/16 00:09:03;;;;;;;0.80;0.80;;;;;;;-2.34;83.00;96242.06;29373;204;63004;-59
2024/01/16 00:09:35;;;;;;;0.70;0.70;;;;;;;-2.35;83.48;96237.78;29372;196;63008;-60
2024/01/16 00:10:08;;;;;;;0.77;0.77;;;;;;;-2.37;83.35;96238.00;29373;224;63005;-60
2024/01/16 00:10:40;;;;;;;0.70;0.70;;;;;;;-2.41;83.94;96246.66;29373;213;63009;-58
2024/01/16 00:11:11;;;;;;;0.70;0.70;;;;;;;-2.44;84.00;96239.16;29373;231;63005;-61
2024/01/16 00:11:43;;;;;;;0.77;0.77;;;;;;;-2.46;84.21;96239.38;29373;212;63009;-59
2024/01/16 00:12:15;;;;;;;0.80;0.80;;;;;;;-2.46;84.14;96243.91;29373;238;63005;-59
2024/01/16 00:12:47;;;;;;;0.70;0.70;;;;;;;-2.47;84.25;96236.97;29373;233;63009;-61
2024/01/16 00:13:19;;;;;;;0.70;0.70;;;;;;;-2.40;84.02;96237.66;29371;220;64009;-59
2024/01/16 00:13:50;;;;;;;0.70;0.70;;;;;;;-2.33;83.42;96233.06;29373;197;63009;-59
2024/01/16 00:14:21;;;;;;;1.45;1.25;;;;;;;-2.31;83.18;96230.16;29373;196;63004;-59
2024/01/16 00:14:53;;;;;;;0.80;0.80;;;;;;;-2.25;82.54;96232.72;29373;218;63009;-59
2024/01/16 00:15:25;;;;;;;0.98;0.95;;;;;;;-2.15;82.01;96234.84;29373;219;63004;-59
2024/01/16 00:15:56;;;;;;;0.70;0.70;;;;;;;-2.14;81.60;96226.63;29373;202;63009;-59
2024/01/16 00:16:27;;;;;;;0.80;0.80;;;;;;;-2.19;81.63;96229.16;29373;224;63004;-59
2024/01/16 00:16:59;;;;;;;0.70;0.70;;;;;;;-2.21;81.80;96231.25;29373;204;63008;-59
2024/01/16 00:17:30;;;;;;;0.70;0.70;;;;;;;-2.19;81.85;96223.03;29373;236;63017;-60
2024/01/16 00:18:01;;;;;;;0.77;0.77;;;;;;;-2.23;81.79;96228.00;29373;259;63009;-59
2024/01/16 00:18:34;;;;;;;0.80;0.80;;;;;;;-2.30;81.87;96221.97;29371;206;64009;-60
2024/01/16 00:19:06;;;;;;;0.80;0.80;;;;;;;-2.33;82.07;96230.41;29371;206;64031;-61
2024/01/16 00:19:38;;;;;;;0.70;0.70;;;;;;;-2.34;82.30;96228.78;29373;194;63005;-60
2024/01/16 00:20:13;;;;;;;0.80;0.80;;;;;;;-2.30;82.62;96231.78;29373;207;63009;-64
2024/01/16 00:20:44;;;;;;;0.70;0.70;;;;;;;-2.17;81.85;96220.97;29371;229;64009;-58
2024/01/16 00:21:16;;;;;;;0.70;0.70;;;;;;;-2.17;81.51;96232.41;29373;206;63009;-58
2024/01/16 00:21:48;;;;;;;0.70;0.70;;;;;;;-2.19;81.53;96218.53;29373;222;63004;-61
2024/01/16 00:22:21;;;;;;;0.80;0.80;;;;;;;-2.19;81.67;96229.16;29373;221;63009;-63
2024/01/16 00:22:55;;;;;;;0.80;0.80;;;;;;;-2.16;81.19;96223.41;29373;204;63004;-59
2024/01/16 00:23:27;;;;;;;1.00;1.00;;;;;;;-2.17;80.85;96219.13;29371;196;64013;-61
2024/01/16 00:23:59;;;;;;;0.70;0.70;;;;;;;-2.18;81.03;96220.16;29371;223;64009;-61
2024/01/16 00:24:31;;;;;;;0.70;0.70;;;;;;;-2.23;81.25;96217.38;29373;199;63008;-61
2024/01/16 00:25:03;;;;;;;0.75;0.75;;;;;;;-2.24;81.41;96226.38;29373;205;63005;-59
2024/01/16 00:25:35;;;;;;;0.70;0.70;;;;;;;-2.26;81.60;96228.44;29373;215;63009;-60
2024/01/16 00:26:07;;;;;;;0.70;0.70;;;;;;;-2.27;81.58;96226.81;29371;219;64009;-58
2024/01/16 00:26:39;;;;;;;0.70;0.70;;;;;;;-2.27;82.11;96226.03;29373;226;63009;-62
2024/01/16 00:27:11;;;;;;;0.70;0.70;;;;;;;-2.22;81.34;96229.63;29373;210;63005;-60
2024/01/16 00:27:42;;;;;;;0.77;0.77;;;;;;;-2.20;81.32;96227.53;29373;214;63009;-58
2024/01/16 00:28:19;;;;;;;0.60;0.60;;;;;;;-2.21;81.15;96225.91;29373;233;63005;-61
2024/01/16 00:28:51;;;;;;;0.80;0.80;;;;;;;-2.23;81.33;96232.50;29373;210;63009;-59
2024/01/16 00:29:23;;;;;;;1.42;1.42;;;;;;;-2.26;81.54;96223.13;29373;220;63004;-60
2024/01/16 00:29:55;;;;;;;0.70;0.70;;;;;;;-2.29;81.71;96228.91;29374;198;63009;-59
2024/01/16 00:30:26;;;;;;;0.70;0.70;;;;;;;-2.31;81.85;96225.66;29373;225;63010;-59
2024/01/16 00:30:58;;;;;;;0.70;0.70;;;;;;;-2.27;81.99;96229.50;29371;261;64013;-59
2024/01/16 00:31:29;;;;;;;0.90;0.90;;;;;;;-2.20;81.54;96229.38;29373;238;63000;-58
2024/01/16 00:32:00;;;;;;;0.70;0.70;;;;;;;-2.20;81.33;96226.72;29373;223;63008;-58
2024/01/16 00:32:32;;;;;;;0.70;0.70;;;;;;;-2.21;81.33;96222.44;29373;260;63005;-59
2024/01/16 00:33:04;;;;;;;0.70;0.70;;;;;;;-2.24;81.43;96223.72;29371;237;64014;-58
2024/01/16 00:33:36;;;;;;;0.80;0.80;;;;;;;-2.20;81.49;96219.56;29371;222;64009;-60
2024/01/16 00:34:09;;;;;;;0.70;0.70;;;;;;;-2.22;81.32;96221.66;29371;239;64013;-58
2024/01/16 00:34:44;;;;;;;0.70;0.70;;;;;;;-2.25;81.44;96224.75;29372;226;63011;-61
2024/01/16 00:35:16;;;;;;;0.70;0.70;;;;;;;-2.24;81.76;96225.56;29373;199;63009;-58
2024/01/16 00:35:48;;;;;;;0.80;0.80;;;;;;;-2.30;81.98;96221.97;29373;274;63004;-58
2024/01/16 00:36:19;;;;;;;1.33;1.33;;;;;;;-2.21;81.56;96225.91;29373;220;63009;-58
2024/01/16 00:36:53;;;;;;;0.80;0.80;;;;;;;-2.22;81.35;96224.31;29373;218;63004;-59
2024/01/16 00:37:24;;;;;;;0.80;0.80;;;;;;;-2.13;80.93;96222.13;29371;209;64013;-60
2024/01/16 00:37:56;;;;;;;0.75;0.75;;;;;;;-2.17;80.19;96215.66;29373;199;63004;-60
2024/01/16 00:38:28;;;;;;;0.70;0.70;;;;;;;-2.17;80.41;96219.13;29373;215;63008;-61
2024/01/16 00:39:02;;;;;;;2.10;2.05;;;;;;;-2.12;80.28;96213.94;29371;220;64009;-60
2024/01/16 00:39:34;;;;;;;0.70;0.70;;;;;;;-2.13;80.26;96217.62;29371;205;64013;-60
2024/01/16 00:40:08;;;;;;;0.80;0.80;;;;;;;-2.09;80.15;96212.66;29373;240;63005;-60
2024/01/16 00:40:40;;;;;;;0.80;0.80;;;;;;;-2.13;80.25;96220.28;29373;219;63009;-60
2024/01/16 00:41:14;;;;;;;0.70;0.70;;;;;;;-2.17;80.35;96219.13;29373;199;63005;-60
2024/01/16 00:41:46;;;;;;;0.70;0.70;;;;;;;-2.23;80.84;96220.03;29373;198;63009;-59
2024/01/16 00:42:21;;;;;;;0.80;0.80;;;;;;;-2.28;81.08;96222.56;29373;249;63006;-68
2024/01/16 00:42:52;;;;;;;1.02;1.02;;;;;;;-2.20;80.83;96226.72;29373;265;63009;-63
2024/01/16 00:43:24;;;;;;;0.70;0.70;;;;;;;-2.16;80.44;96212.75;29373;275;63004;-59
2024/01/16 00:43:56;;;;;;;0.70;0.70;;;;;;;-2.15;80.32;96218.88;29373;212;63009;-58
2024/01/16 00:44:28;;;;;;;0.77;0.77;;;;;;;-2.15;80.40;96214.38;29373;202;63004;-58
2024/01/16 00:45:00;;;;;;;0.70;0.70;;;;;;;-2.18;80.35;96217.50;29371;263;64013;-60
2024/01/16 00:45:34;;;;;;;0.73;0.73;;;;;;;-2.23;80.56;96222.69;29373;204;63004;-59
2024/01/16 00:46:10;;;;;;;0.70;0.70;;;;;;;-2.26;81.01;96220.47;29373;196;63008;-59
2024/01/16 00:46:42;;;;;;;0.70;0.70;;;;;;;-2.27;81.12;96218.84;29373;264;63005;-60
2024/01/16 00:47:14;;;;;;;0.80;0.80;;;;;;;-2.27;81.38;96221.50;29373;235;63009;-58
2024/01/16 00:47:46;;;;;;;0.80;0.80;;;;;;;-2.28;81.42;96224.41;29373;236;63005;-59
2024/01/16 00:48:19;;;;;;;0.80;0.80;;;;;;;-2.28;81.80;96225.22;29373;248;63009;-59
2024/01/16 00:48:52;;;;;;;0.80;0.80;;;;;;;-2.29;81.73;96220.94;29371;227;64009;-61
2024/01/16 00:49:23;;;;;;;0.80;0.80;;;;;;;-2.21;81.18;96217.94;29373;251;63009;-59
2024/01/16 00:49:55;;;;;;;0.70;0.70;;;;;;;-2.19;80.79;96212.41;29373;207;63005;-59
2024/01/16 00:50:29;;;;;;;0.70;0.70;;;;;;;-2.16;80.65;96215.41;29373;259;63009;-60
2024/01/16 00:51:01;;;;;;;0.70;0.70;;;;;;;-2.19;80.50;96213.22;29373;224;63004;-64
2024/01/16 00:51:33;;;;;;;0.70;0.70;;;;;;;-2.20;80.71;96216.91;29371;228;64013;-60
2024/01/16 00:52:06;;;;;;;0.80;0.80;;;;;;;-2.19;80.83;96213.22;29373;235;63007;-59
2024/01/16 00:52:38;;;;;;;0.70;0.70;;;;;;;-2.22;80.83;96219.00;29373;224;63009;-60
2024/01/16 00:53:10;;;;;;;0.70;0.70;;;;;;;-2.26;80.91;96223.13;29371;202;64009;-58
2024/01/16 00:53:43;;;;;;;0.70;0.70;;;;;;;-2.28;81.15;96219.91;29373;202;63008;-58
2024/01/16 00:54:16;;;;;;;0.70;0.70;;;;;;;-2.19;80.80;96218.53;29373;203;63005;-59
2024/01/16 00:54:49;;;;;;;0.70;0.70;;;;;;;-2.20;80.73;96214.25;29373;217;63005;-60
2024/01/16 00:55:22;;;;;;;0.70;0.70;;;;;;;-2.22;81.17;96229.63;29371;216;64009;-62
2024/01/16 00:55:55;;;;;;;0.80;0.80;;;;;;;-2.20;80.77;96224.88;29373;215;63009;-69
2024/01/16 00:56:32;;;;;;;0.80;0.80;;;;;;;-2.21;80.43;96227.78;29373;203;63005;-61
2024/01/16 00:57:04;;;;;;;0.70;0.70;;;;;;;-2.24;80.84;96229.03;29373;253;63009;-61
2024/01/16 00:57:35;;;;;;;0.70;0.70;;;;;;;-2.28;80.99;96222.56;29373;204;63005;-58
2024/01/16 00:58:09;;;;;;;0.75;0.75;;;;;;;-2.28;81.41;96230.53;29373;207;63009;-60
2024/01/16 00:58:41;;;;;;;0.70;0.70;;;;;;;-2.30;81.55;96227.28;29373;196;63004;-59
2024/01/16 00:59:14;;;;;;;0.70;0.70;;;;;;;-2.30;81.75;96226.47;29373;272;63009;-62
2024/01/16 00:59:48;;;;;;;1.02;1.02;;;;;;;-2.29;81.78;96234.22;29371;215;64009;-59
2024/01/16 01:00:20;;;;;;;0.70;0.70;;;;;;;-2.29;81.74;96220.13;29373;279;63009;-61
2024/01/16 01:00:51;;;;;;;0.80;0.80;;;;;;;-2.27;81.70;96220.69;29373;231;63004;-59
2024/01/16 01:01:26;;;;;;;0.70;0.70;;;;;;;-2.27;81.48;96226.81;29373;219;63008;-58
2024/01/16 01:01:57;;;;;;;0.70;0.70;;;;;;;-2.27;81.37;96226.03;29373;218;63010;-59
2024/01/16 01:02:40;;;;;;;0.70;0.70;;;;;;;-2.30;82.08;96226.47;29373;227;63009;-58
2024/01/16 01:03:12;;;;;;;0.90;0.90;;;;;;;-2.29;81.80;96228.09;29373;210;63005;-59
2024/01/16 01:03:43;;;;;;;0.80;0.80;;;;;;;-2.31;81.77;96223.00;29373;198;63009;-59
2024/01/16 01:04:14;;;;;;;0.90;0.90;;;;;;;-2.33;81.71;96218.94;29373;247;63005;-60
2024/01/16 01:04:45;;;;;;;0.70;0.70;;;;;;;-2.36;81.99;96217.56;29371;202;64013;-59
2024/01/16 01:05:17;;;;;;;0.70;0.70;;;;;;;-2.37;82.06;96226.56;29373;197;63005;-60
2024/01/16 01:05:48;;;;;;;0.80;0.80;;;;;;;-2.39;82.30;96223.31;29373;209;63009;-59
2024/01/16 01:06:20;;;;;;;0.85;0.85;;;;;;;-2.30;81.94;96221.16;29373;208;63004;-62
2024/01/16 01:06:51;;;;;;;0.70;0.70;;;;;;;-2.27;81.38;96223.38;29371;233;64013;-60
2024/01/16 01:07:25;;;;;;;2.58;2.47;;;;;;;-2.28;81.26;96222.56;29373;215;63004;-61
2024/01/16 01:07:58;;;;;;;0.80;0.80;;;;;;;-2.27;81.58;96226.03;29373;225;63026;-59
2024/01/16 01:08:32;;;;;;;0.70;0.70;;;;;;;-2.23;81.28;96225.34;29373;292;63004;-62
2024/01/16 01:09:03;;;;;;;0.80;0.80;;;;;;;-2.25;81.05;96219.44;29373;216;63008;-61
2024/01/16 01:09:34;;;;;;;0.80;0.80;;;;;;;-2.26;81.09;96217.81;29373;216;63005;-60
2024/01/16 01:10:07;;;;;;;0.80;0.80;;;;;;;-2.26;81.46;96225.78;29373;257;63009;-61
2024/01/16 01:10:38;;;;;;;0.80;0.80;;;;;;;-2.27;81.63;96223.38;29371;215;64009;-61
2024/01/16 01:11:10;;;;;;;0.80;0.80;;;;;;;-2.29;81.74;96223.59;29373;246;63009;-61
2024/01/16 01:11:41;;;;;;;0.80;0.80;;;;;;;-2.28;81.67;96227.06;29373;245;63005;-61
2024/01/16 01:12:13;;;;;;;0.70;0.70;;;;;;;-2.26;81.83;96225.78;29373;214;63009;-61
2024/01/16 01:12:46;;;;;;;0.73;0.73;;;;;;;-2.30;81.62;96219.31;29373;210;63005;-60
2024/01/16 01:13:18;;;;;;;0.80;0.80;;;;;;;-2.34;81.94;96223.47;29373;206;63009;-60
2024/01/16 01:13:51;;;;;;;0.80;0.80;;;;;;;-2.37;82.02;96229.22;29373;215;63004;-61
2024/01/16 01:14:22;;;;;;;0.70;0.70;;;;;;;-2.36;81.96;96228.19;29373;265;63009;-58
2024/01/16 01:14:54;;;;;;;0.80;0.80;;;;;;;-2.37;82.07;96230.03;29373;229;63004;-63
2024/01/16 01:15:26;;;;;;;0.80;0.80;;;;;;;-2.35;81.82;96216.53;29373;236;63009;-60
2024/01/16 01:15:58;;;;;;;0.70;0.70;;;;;;;-2.32;81.91;96228.53;29371;218;64009;-60
2024/01/16 01:16:29;;;;;;;0.70;0.70;;;;;;;-2.29;81.89;96236.88;29373;243;63008;-60
2024/01/16 01:17:02;;;;;;;0.80;0.80;;;;;;;-2.26;81.44;96217.81;29373;198;63005;-60
2024/01/16 01:17:33;;;;;;;0.80;0.80;;;;;;;-2.24;81.37;96225.56;29373;283;63009;-60
2024/01/16 01:18:06;;;;;;;0.80;0.80;;;;;;;-2.24;81.23;96223.72;29373;198;63005;-59
2024/01/16 01:18:39;;;;;;;0.70;0.70;;;;;;;-2.25;80.95;96227.41;29373;223;63009;-60
2024/01/16 01:19:12;;;;;;;0.80;0.80;;;;;;;-2.27;81.07;96221.50;29373;229;63005;-60
2024/01/16 01:19:47;;;;;;;0.70;0.70;;;;;;;-2.29;81.48;96220.13;29373;220;63009;-61
2024/01/16 01:20:19;;;;;;;0.70;0.70;;;;;;;-2.27;81.86;96221.50;29373;219;63011;-61
2024/01/16 01:20:53;;;;;;;0.80;0.80;;;;;;;-2.20;81.33;96224.88;29373;206;63009;-61
2024/01/16 01:21:25;;;;;;;1.35;1.35;;;;;;;-2.12;80.51;96213.94;29371;211;64009;-59
2024/01/16 01:22:01;;;;;;;8.00;1.42;;;;;;;-2.11;80.44;96217.41;29371;212;64004;-60
2024/01/16 01:22:37;;;;;;;1.02;1.02;;;;;;;-2.03;79.69;96215.19;29373;211;63004;-64
2024/01/16 01:23:10;;;;;;;0.70;0.70;;;;;;;-1.99;79.44;96218.19;29373;213;63009;-62
2024/01/16 01:23:41;;;;;;;0.80;0.80;;;;;;;-1.95;79.36;96208.72;29373;214;63004;-61
2024/01/16 01:24:12;;;;;;;0.70;0.70;;;;;;;-1.97;79.25;96215.31;29373;258;63008;-61
2024/01/16 01:24:43;;;;;;;0.90;0.90;;;;;;;-1.98;79.36;96219.00;29373;214;63005;-61
2024/01/16 01:25:14;;;;;;;0.80;0.80;;;;;;;-2.03;79.47;96223.16;29373;213;63009;-61
2024/01/16 01:25:46;;;;;;;0.70;0.70;;;;;;;-2.02;79.66;96229.28;29371;236;64009;-61
2024/01/16 01:26:19;;;;;;;0.73;0.73;;;;;;;-2.05;80.24;96225.22;29373;203;63009;-60
2024/01/16 01:26:52;;;;;;;0.70;0.70;;;;;;;-2.13;81.03;96238.06;29373;213;63008;-60
2024/01/16 01:27:24;;;;;;;0.80;0.80;;;;;;;-2.14;80.76;96225.81;29373;230;63009;-59
2024/01/16 01:27:55;;;;;;;0.80;0.80;;;;;;;-2.13;80.55;96228.25;29373;204;63005;-62
2024/01/16 01:28:27;;;;;;;0.70;0.70;;;;;;;-2.13;80.26;96232.75;29373;217;63009;-61
2024/01/16 01:28:58;;;;;;;0.80;0.80;;;;;;;-2.09;80.10;96228.59;29373;257;63004;-62
2024/01/16 01:29:29;;;;;;;0.98;0.98;;;;;;;-2.12;80.08;96221.91;29371;244;64013;-61
2024/01/16 01:30:00;;;;;;;0.80;0.80;;;;;;;-2.12;80.08;96223.75;29373;218;63004;-62
2024/01/16 01:30:32;;;;;;;0.80;0.80;;;;;;;-2.14;80.30;96225.81;29373;218;63009;-59
2024/01/16 01:31:04;;;;;;;0.70;0.70;;;;;;;-2.17;80.26;96229.75;29373;260;63004;-62
2024/01/16 01:31:38;;;;;;;0.80;0.80;;;;;;;-2.23;81.05;96230.66;29373;215;63008;-60
2024/01/16 01:32:09;;;;;;;0.70;0.70;;;;;;;-2.23;81.09;96232.50;29373;250;63001;-60
2024/01/16 01:32:40;;;;;;;0.70;0.70;;;;;;;-2.25;81.21;96230.06;29371;224;64014;-60
2024/01/16 01:33:12;;;;;;;0.70;0.70;;;;;;;-2.28;81.12;96238.50;29373;232;63005;-60
2024/01/16 01:33:43;;;;;;;0.70;0.70;;;;;;;-2.29;81.14;96236.88;29373;248;63009;-59
2024/01/16 01:34:15;;;;;;;0.70;0.70;;;;;;;-2.29;81.39;96242.19;29373;222;63000;-59
2024/01/16 01:34:46;;;;;;;0.77;0.77;;;;;;;-2.18;80.84;96241.41;29373;250;63009;-59
2024/01/16 01:35:19;;;;;;;0.70;0.70;;;;;;;-2.14;80.14;96242.59;29373;237;63005;-59
2024/01/16 01:35:50;;;;;;;0.70;0.70;;;;;;;-2.15;80.17;96240.97;29373;202;63009;-61
2024/01/16 01:36:24;;;;;;;0.70;0.70;;;;;;;-2.16;80.34;96249.97;29373;219;63004;-60
2024/01/16 01:36:57;;;;;;;0.80;0.80;;;;;;;-2.07;80.03;96235.28;29373;210;63009;-63
2024/01/16 01:37:29;;;;;;;0.80;0.80;;;;;;;-2.08;79.49;96244.28;29373;203;63017;-59
2024/01/16 01:38:00;;;;;;;0.70;0.70;;;;;;;-2.11;79.50;96244.78;29371;232;64013;-59
2024/01/16 01:38:31;;;;;;;0.70;0.70;;;;;;;-2.16;79.88;96239.34;29373;224;63004;-60
2024/01/16 01:39:03;;;;;;;0.70;0.70;;;;;;;-2.19;80.16;96250.44;29373;203;63008;-61
2024/01/16 01:39:34;;;;;;;0.70;0.70;;;;;;;-2.25;80.65;96251.31;29373;258;63005;-61
2024/01/16 01:40:08;;;;;;;0.70;0.70;;;;;;;-2.29;80.95;96252.00;29373;258;63009;-61
2024/01/16 01:40:42;;;;;;;0.70;0.70;;;;;;;-2.29;81.25;96250.16;29373;224;63005;-61
2024/01/16 01:41:13;;;;;;;0.80;0.80;;;;;;;-2.29;81.31;96250.16;29373;216;63009;-61
2024/01/16 01:41:45;;;;;;;0.70;0.70;;;;;;;-2.27;81.46;96252.59;29373;209;63005;-62
2024/01/16 01:42:17;;;;;;;0.70;0.70;;;;;;;-2.30;81.40;96247.72;29373;211;63009;-62
2024/01/16 01:42:48;;;;;;;0.73;0.73;;;;;;;-2.30;81.44;96253.84;29372;246;63005;-61
2024/01/16 01:43:21;;;;;;;0.70;0.70;;;;;;;-2.31;81.59;96248.75;29371;243;64013;-61
2024/01/16 01:43:52;;;;;;;0.70;0.70;;;;;;;-2.31;81.57;96248.75;29373;208;63004;-60
2024/01/16 01:44:25;;;;;;;0.70;0.70;;;;;;;-2.30;81.54;96250.37;29371;264;64013;-62
2024/01/16 01:44:56;;;;;;;0.70;0.70;;;;;;;-2.31;81.54;96252.22;29373;239;63004;-61
2024/01/16 01:45:27;;;;;;;0.77;0.77;;;;;;;-2.27;81.71;96253.41;29373;206;63008;-62
2024/01/16 01:46:27;;;;;;;0.80;0.80;;;;;;;-2.24;81.15;96258.25;29373;209;63004;-62
2024/01/16 01:46:59;;;;;;;0.70;0.70;;;;;;;-2.25;80.81;96256.66;29373;251;63008;-61
2024/01/16 01:47:31;;;;;;;0.70;0.70;;;;;;;-2.24;81.03;96257.47;29373;235;63005;-63
2024/01/16 01:48:06;;;;;;;0.70;0.70;;;;;;;-2.16;80.45;96255.28;29373;197;63009;-61
2024/01/16 01:48:40;;;;;;;0.80;0.80;;;;;;;-2.16;80.28;96247.31;29373;216;63005;-62
2024/01/16 01:49:15;;;;;;;0.70;0.70;;;;;;;-2.15;80.28;96251.59;29373;240;63025;-60
2024/01/16 01:49:46;;;;;;;0.70;0.70;;;;;;;-2.17;80.23;96258.97;29371;202;64009;-58
2024/01/16 01:50:19;;;;;;;0.70;0.70;;;;;;;-2.18;80.39;96252.03;29373;217;63009;-61
2024/01/16 01:50:51;;;;;;;0.70;0.70;;;;;;;-2.21;80.26;96257.81;29373;246;63004;-61
2024/01/16 01:51:22;;;;;;;0.70;0.70;;;;;;;-2.20;80.42;96256.78;29371;229;64013;-62
2024/01/16 01:51:55;;;;;;;0.80;0.80;;;;;;;-2.19;80.76;96254.94;29373;279;63004;-60
2024/01/16 01:52:27;;;;;;;0.80;0.80;;;;;;;-2.18;80.70;96257.34;29373;227;63009;-63
2024/01/16 01:52:58;;;;;;;0.70;0.70;;;;;;;-2.13;80.52;96259.34;29373;224;63004;-67
2024/01/16 01:53:32;;;;;;;0.70;0.70;;;;;;;-2.09;79.90;96256.00;29373;256;63008;-62
2024/01/16 01:54:04;;;;;;;0.70;0.70;;;;;;;-2.10;79.73;96257.03;29373;267;63014;-62
2024/01/16 01:54:41;;;;;;;0.70;0.70;;;;;;;-2.14;79.91;96258.53;29371;244;64014;-61
2024/01/16 01:55:14;;;;;;;0.70;0.70;;;;;;;-2.19;80.19;96266.37;29371;206;64009;-62
2024/01/16 01:55:46;;;;;;;0.70;0.70;;;;;;;-2.18;80.47;96261.88;29373;212;63019;-61
2024/01/16 01:56:19;;;;;;;0.80;0.80;;;;;;;-2.21;80.74;96263.12;29373;268;63005;-61
2024/01/16 01:56:50;;;;;;;0.70;0.70;;;;;;;-2.21;80.95;96262.31;29373;266;63016;-61
2024/01/16 01:57:22;;;;;;;0.68;0.68;;;;;;;-2.22;81.06;96261.50;29373;227;63005;-62
2024/01/16 01:57:54;;;;;;;0.70;0.70;;;;;;;-2.24;81.08;96263.59;29373;237;63009;-61
2024/01/16 01:58:25;;;;;;;0.70;0.70;;;;;;;-2.27;81.11;96266.69;29373;212;63004;-61
2024/01/16 01:58:58;;;;;;;0.70;0.70;;;;;;;-2.28;81.34;96267.72;29373;249;63009;-61
2024/01/16 01:59:31;;;;;;;0.70;0.70;;;;;;;-2.31;81.41;96270.03;29373;284;63004;-60
2024/01/16 02:00:04;;;;;;;0.80;0.80;;;;;;;-2.35;81.67;96267.00;29373;197;63009;-61
2024/01/16 02:00:36;;;;;;;0.70;0.70;;;;;;;-2.36;82.02;96273.34;29371;215;64008;-60
2024/01/16 02:01:07;;;;;;;0.80;0.80;;;;;;;-2.40;82.25;96265.03;29373;202;63008;-62
2024/01/16 02:01:40;;;;;;;0.70;0.70;;;;;;;-2.41;82.11;96267.91;29373;208;63005;-60
2024/01/16 02:02:15;;;;;;;0.70;0.70;;;;;;;-2.44;82.17;96263.06;29373;230;63009;-61
2024/01/16 02:02:47;;;;;;;0.80;0.80;;;;;;;-2.45;82.44;96277.41;29373;219;63005;-62
2024/01/16 02:03:19;;;;;;;0.80;0.80;;;;;;;-2.43;82.71;96277.97;29373;211;63014;-60
2024/01/16 02:03:52;;;;;;;0.77;0.77;;;;;;;-2.41;82.33;96265.25;29373;214;63005;-61
2024/01/16 02:04:26;;;;;;;0.70;0.70;;;;;;;-2.31;81.83;96273.50;29373;228;63009;-61
2024/01/16 02:04:58;;;;;;;0.75;0.75;;;;;;;-2.30;81.75;96264.47;29373;214;63005;-65
2024/01/16 02:05:30;;;;;;;0.80;0.80;;;;;;;-2.24;81.28;96268.91;29373;229;63009;-60
2024/01/16 02:06:03;;;;;;;0.70;0.70;;;;;;;-2.30;81.06;96259.16;29371;218;64009;-60
2024/01/16 02:06:37;;;;;;;0.80;0.80;;;;;;;-2.35;81.31;96261.69;29373;251;63009;-60
2024/01/16 02:07:09;;;;;;;0.80;0.80;;;;;;;-2.39;81.38;96271.16;29373;226;63004;-60
2024/01/16 02:07:42;;;;;;;0.70;0.70;;;;;;;-2.42;81.68;96260.97;29373;206;63009;-61
2024/01/16 02:08:13;;;;;;;0.80;0.80;;;;;;;-2.40;82.07;96264.22;29373;208;63004;-58
2024/01/16 02:08:45;;;;;;;0.70;0.70;;;;;;;-2.39;81.98;96260.53;29373;253;63008;-59
2024/01/16 02:09:16;;;;;;;1.48;1.37;;;;;;;-2.39;81.83;96271.16;29373;243;63005;-61
2024/01/16 02:09:53;;;;;;;0.80;0.80;;;;;;;-2.42;81.92;96268.94;29373;227;63009;-60
2024/01/16 02:10:24;;;;;;;0.88;0.88;;;;;;;-2.32;81.43;96266.56;29373;244;63005;-60
2024/01/16 02:10:57;;;;;;;0.70;0.70;;;;;;;-2.29;81.19;96260.78;29373;216;63009;-58
2024/01/16 02:11:28;;;;;;;0.70;0.70;;;;;;;-2.26;80.95;96265.66;29371;288;64009;-58
2024/01/16 02:12:00;;;;;;;0.80;0.80;;;;;;;-2.25;80.74;96263.81;29371;208;64013;-60
2024/01/16 02:12:31;;;;;;;0.80;0.80;;;;;;;-2.23;80.68;96267.84;29373;218;63005;-57
2024/01/16 02:13:03;;;;;;;0.80;0.80;;;;;;;-2.25;80.65;96263.81;29373;203;63009;-61
2024/01/16 02:13:35;;;;;;;0.70;0.70;;;;;;;-2.31;80.58;96262.88;29373;207;63004;-60
2024/01/16 02:14:10;;;;;;;0.70;0.70;;;;;;;-2.38;81.38;96267.47;29373;216;63009;-58
2024/01/16 02:14:41;;;;;;;0.70;0.70;;;;;;;-2.46;81.42;96270.47;29373;202;63004;-58
2024/01/16 02:15:16;;;;;;;0.70;0.70;;;;;;;-2.49;81.75;96270.91;29371;218;64013;-58
2024/01/16 02:15:47;;;;;;;0.70;0.70;;;;;;;-2.52;82.03;96268.69;29371;218;64008;-60
2024/01/16 02:16:23;;;;;;;0.80;0.80;;;;;;;-2.54;82.24;96273.44;29373;237;63008;-60
2024/01/16 02:16:55;;;;;;;0.80;0.80;;;;;;;-2.56;82.33;96276.31;29373;254;63005;-58
2024/01/16 02:17:26;;;;;;;0.70;0.70;;;;;;;-2.54;82.57;96274.25;29373;226;63009;-57
2024/01/16 02:17:58;;;;;;;0.80;0.80;;;;;;;-2.53;82.38;96280.34;29371;225;64009;-61
2024/01/16 02:18:29;;;;;;;0.80;0.80;;;;;;;-2.50;82.42;96277.25;29373;210;63009;-60
2024/01/16 02:19:01;;;;;;;0.70;0.70;;;;;;;-2.48;82.32;96278.66;29373;258;63005;-58
2024/01/16 02:19:32;;;;;;;0.73;0.73;;;;;;;-2.45;82.23;96285.38;29373;219;63009;-63
2024/01/16 02:20:07;;;;;;;0.70;0.70;;;;;;;-2.37;81.51;96275.19;29371;205;64009;-61
2024/01/16 02:20:40;;;;;;;0.80;0.80;;;;;;;-2.40;81.75;96269.53;29373;218;63009;-60
2024/01/16 02:21:16;;;;;;;0.70;0.70;;;;;;;-2.45;81.58;96272.88;29373;258;63004;-61
2024/01/16 02:21:49;;;;;;;0.70;0.70;;;;;;;-2.46;81.97;96275.78;29373;210;63009;-62
2024/01/16 02:22:23;;;;;;;0.80;0.80;;;;;;;-2.39;81.51;96276.47;29373;245;63004;-60
2024/01/16 02:23:00;;;;;;;0.70;0.70;;;;;;;-2.39;81.22;96269.31;29373;237;63009;-61
2024/01/16 02:23:33;;;;;;;0.80;0.80;;;;;;;-2.40;81.18;96267.69;29373;218;63004;-60
2024/01/16 02:24:07;;;;;;;0.80;0.80;;;;;;;-2.42;81.40;96269.75;29373;229;63009;-61
2024/01/16 02:24:38;;;;;;;0.80;0.80;;;;;;;-2.40;81.44;96269.53;29371;303;64009;-61
2024/01/16 02:25:10;;;;;;;0.80;0.80;;;;;;;-2.44;81.46;96271.03;29373;211;63009;-60
2024/01/16 02:25:45;;;;;;;0.70;0.70;;;;;;;-2.48;81.52;96277.84;29373;207;63005;-61
2024/01/16 02:26:17;;;;;;;0.70;0.70;;;;;;;-2.51;81.94;96280.94;29373;199;63014;-61
2024/01/16 02:26:49;;;;;;;0.82;0.82;;;;;;;-2.49;82.20;96279.69;29373;237;63005;-62
2024/01/16 02:27:20;;;;;;;0.70;0.70;;;;;;;-2.46;82.20;96275.78;29373;198;63009;-60
2024/01/16 02:27:54;;;;;;;0.70;0.70;;;;;;;-2.34;81.46;96273.13;29373;237;63005;-67
2024/01/16 02:28:26;;;;;;;0.70;0.70;;;;;;;-2.24;80.41;96266.25;29373;253;63014;-60
2024/01/16 02:28:57;;;;;;;0.80;0.80;;;;;;;-2.26;80.33;96265.66;29373;259;63004;-61
2024/01/16 02:29:29;;;;;;;3.67;3.47;;;;;;;-2.22;80.35;96266.00;29373;258;63009;-68
2024/01/16 02:30:06;;;;;;;0.80;0.80;;;;;;;-2.19;79.75;96266.37;29371;298;64009;-60
2024/01/16 02:30:37;;;;;;;0.80;0.80;;;;;;;-2.24;79.86;96266.25;29373;197;63009;-63
2024/01/16 02:31:08;;;;;;;0.80;0.80;;;;;;;-2.24;79.89;96268.09;29373;223;63004;-62
2024/01/16 02:31:40;;;;;;;0.70;0.70;;;;;;;-2.22;79.74;96261.50;29373;199;63009;-57
2024/01/16 02:32:12;;;;;;;1.15;1.12;;;;;;;-2.25;79.85;96266.47;29373;204;63005;-63
2024/01/16 02:32:47;;;;;;;0.70;0.70;;;;;;;-2.31;80.13;96257.56;29373;208;63009;-62
2024/01/16 02:33:19;;;;;;;0.80;0.80;;;;;;;-2.32;79.99;96253.28;29373;221;63005;-58
2024/01/16 02:33:54;;;;;;;0.80;0.80;;;;;;;-2.28;80.12;96259.75;29373;251;63009;-61
2024/01/16 02:34:25;;;;;;;0.80;0.80;;;;;;;-2.29;80.23;96260.78;29373;286;63005;-59
2024/01/16 02:34:56;;;;;;;3.62;3.45;;;;;;;-2.27;80.32;96256.06;29373;214;63009;-58